sensor_id;sensor_type;location;lat;lon;timestamp;P1;durP1;ratioP1;P2;durP2;ratioP2
26774;SDS011;14362;51.902;7.626;2023-05-16T00:00:22;7.82;;;6.63;;
26774;SDS011;14362;51.902;7.626;2023-05-16T00:04:24;7.18;;;6.47;;
26774;SDS011;14362;51.902;7.626;2023-05-16T00:08:27;9.73;;;7.03;;
26774;SDS011;14362;51.902;7.626;2023-05-16T00:12:29;7.32;;;6.63;;
26774;SDS011;14362;51.902;7.626;2023-05-16T00:16:31;9.80;;;7.20;;
26774;SDS011;14362;51.902;7.626;2023-05-16T00:20:36;9.20;;;7.37;;
26774;SDS011;14362;51.902;7.626;2023-05-16T00:24:38;8.70;;;6.78;;
26774;SDS011;14362;51.902;7.626;2023-05-16T00:28:40;6.93;;;5.80;;
26774;SDS011;14362;51.902;7.626;2023-05-16T00:32:42;6.32;;;4.95;;
26774;SDS011;14362;51.902;7.626;2023-05-16T00:36:43;5.03;;;4.15;;
26774;SDS011;14362;51.902;7.626;2023-05-16T00:40:46;6.88;;;4.32;;
26774;SDS011;14362;51.902;7.626;2023-05-16T00:44:47;5.10;;;3.85;;
26774;SDS011;14362;51.902;7.626;2023-05-16T00:48:49;2.65;;;2.42;;
26774;SDS011;14362;51.902;7.626;2023-05-16T00:52:50;2.33;;;2.13;;
26774;SDS011;14362;51.902;7.626;2023-05-16T00:56:53;1.95;;;1.75;;
26774;SDS011;14362;51.902;7.626;2023-05-16T01:00:55;1.70;;;1.33;;
26774;SDS011;14362;51.902;7.626;2023-05-16T01:04:57;1.05;;;0.95;;
26774;SDS011;14362;51.902;7.626;2023-05-16T01:08:58;1.55;;;1.40;;
26774;SDS011;14362;51.902;7.626;2023-05-16T01:13:04;2.88;;;1.25;;
26774;SDS011;14362;51.902;7.626;2023-05-16T01:17:12;3.33;;;1.48;;
26774;SDS011;14362;51.902;7.626;2023-05-16T01:21:26;4.05;;;1.80;;
26774;SDS011;14362;51.902;7.626;2023-05-16T01:25:44;8.35;;;2.22;;
26774;SDS011;14362;51.902;7.626;2023-05-16T01:29:57;8.68;;;2.00;;
26774;SDS011;14362;51.902;7.626;2023-05-16T01:33:58;8.48;;;2.47;;
26774;SDS011;14362;51.902;7.626;2023-05-16T01:38:03;7.35;;;2.90;;
26774;SDS011;14362;51.902;7.626;2023-05-16T01:42:11;8.88;;;2.60;;
26774;SDS011;14362;51.902;7.626;2023-05-16T01:46:18;10.52;;;3.15;;
26774;SDS011;14362;51.902;7.626;2023-05-16T01:50:22;10.95;;;3.78;;
26774;SDS011;14362;51.902;7.626;2023-05-16T01:54:26;7.68;;;3.53;;
26774;SDS011;14362;51.902;7.626;2023-05-16T01:58:32;10.77;;;4.40;;
26774;SDS011;14362;51.902;7.626;2023-05-16T02:02:37;9.98;;;3.70;;
26774;SDS011;14362;51.902;7.626;2023-05-16T02:06:38;11.38;;;4.15;;
26774;SDS011;14362;51.902;7.626;2023-05-16T02:10:39;12.95;;;3.50;;
26774;SDS011;14362;51.902;7.626;2023-05-16T02:14:41;9.50;;;3.35;;
26774;SDS011;14362;51.902;7.626;2023-05-16T02:18:44;10.73;;;3.88;;
26774;SDS011;14362;51.902;7.626;2023-05-16T02:22:45;12.75;;;2.95;;
26774;SDS011;14362;51.902;7.626;2023-05-16T02:26:48;7.65;;;2.92;;
26774;SDS011;14362;51.902;7.626;2023-05-16T02:30:54;10.55;;;3.17;;
26774;SDS011;14362;51.902;7.626;2023-05-16T02:34:58;10.60;;;3.05;;
26774;SDS011;14362;51.902;7.626;2023-05-16T02:38:59;13.90;;;2.72;;
26774;SDS011;14362;51.902;7.626;2023-05-16T02:43:01;18.08;;;3.72;;
26774;SDS011;14362;51.902;7.626;2023-05-16T02:47:02;9.80;;;3.50;;
26774;SDS011;14362;51.902;7.626;2023-05-16T02:51:05;15.30;;;3.40;;
26774;SDS011;14362;51.902;7.626;2023-05-16T02:55:07;14.38;;;3.45;;
26774;SDS011;14362;51.902;7.626;2023-05-16T02:59:09;14.10;;;3.47;;
26774;SDS011;14362;51.902;7.626;2023-05-16T03:03:11;15.75;;;3.55;;
26774;SDS011;14362;51.902;7.626;2023-05-16T03:07:14;15.68;;;2.95;;
26774;SDS011;14362;51.902;7.626;2023-05-16T03:11:16;11.93;;;2.97;;
26774;SDS011;14362;51.902;7.626;2023-05-16T03:15:19;11.48;;;3.13;;
26774;SDS011;14362;51.902;7.626;2023-05-16T03:19:21;15.27;;;2.90;;
26774;SDS011;14362;51.902;7.626;2023-05-16T03:23:23;17.23;;;3.47;;
26774;SDS011;14362;51.902;7.626;2023-05-16T03:27:26;13.60;;;3.63;;
26774;SDS011;14362;51.902;7.626;2023-05-16T03:31:31;10.27;;;2.60;;
26774;SDS011;14362;51.902;7.626;2023-05-16T03:35:33;18.48;;;3.15;;
26774;SDS011;14362;51.902;7.626;2023-05-16T03:39:37;10.68;;;2.80;;
26774;SDS011;14362;51.902;7.626;2023-05-16T03:43:39;11.35;;;2.47;;
26774;SDS011;14362;51.902;7.626;2023-05-16T03:47:40;11.32;;;2.65;;
26774;SDS011;14362;51.902;7.626;2023-05-16T03:51:42;11.27;;;2.47;;
26774;SDS011;14362;51.902;7.626;2023-05-16T03:55:44;10.52;;;2.72;;
26774;SDS011;14362;51.902;7.626;2023-05-16T03:59:46;17.20;;;2.53;;
26774;SDS011;14362;51.902;7.626;2023-05-16T04:03:47;11.80;;;2.72;;
26774;SDS011;14362;51.902;7.626;2023-05-16T04:07:49;16.60;;;3.60;;
26774;SDS011;14362;51.902;7.626;2023-05-16T04:11:52;7.40;;;2.15;;
26774;SDS011;14362;51.902;7.626;2023-05-16T04:15:55;16.88;;;3.65;;
26774;SDS011;14362;51.902;7.626;2023-05-16T04:19:56;11.10;;;2.95;;
26774;SDS011;14362;51.902;7.626;2023-05-16T04:23:58;10.40;;;2.50;;
26774;SDS011;14362;51.902;7.626;2023-05-16T04:28:01;20.10;;;2.92;;
26774;SDS011;14362;51.902;7.626;2023-05-16T04:32:03;9.40;;;2.63;;
26774;SDS011;14362;51.902;7.626;2023-05-16T04:36:06;12.15;;;3.35;;
26774;SDS011;14362;51.902;7.626;2023-05-16T04:40:08;13.27;;;2.90;;
26774;SDS011;14362;51.902;7.626;2023-05-16T04:44:11;11.30;;;2.58;;
26774;SDS011;14362;51.902;7.626;2023-05-16T04:48:13;13.20;;;3.05;;
26774;SDS011;14362;51.902;7.626;2023-05-16T04:52:14;10.15;;;2.15;;
26774;SDS011;14362;51.902;7.626;2023-05-16T04:56:16;10.63;;;2.40;;
26774;SDS011;14362;51.902;7.626;2023-05-16T05:00:19;13.10;;;2.75;;
26774;SDS011;14362;51.902;7.626;2023-05-16T05:04:21;9.63;;;2.58;;
26774;SDS011;14362;51.902;7.626;2023-05-16T05:08:23;22.63;;;3.60;;
26774;SDS011;14362;51.902;7.626;2023-05-16T05:12:24;20.08;;;3.92;;
26774;SDS011;14362;51.902;7.626;2023-05-16T05:16:28;10.93;;;2.15;;
26774;SDS011;14362;51.902;7.626;2023-05-16T05:20:29;12.20;;;2.17;;
26774;SDS011;14362;51.902;7.626;2023-05-16T05:24:31;10.73;;;2.33;;
26774;SDS011;14362;51.902;7.626;2023-05-16T05:28:32;15.43;;;2.63;;
26774;SDS011;14362;51.902;7.626;2023-05-16T05:32:35;9.23;;;2.15;;
26774;SDS011;14362;51.902;7.626;2023-05-16T05:36:37;9.98;;;2.22;;
26774;SDS011;14362;51.902;7.626;2023-05-16T05:40:38;8.82;;;2.80;;
26774;SDS011;14362;51.902;7.626;2023-05-16T05:44:39;12.75;;;2.20;;
26774;SDS011;14362;51.902;7.626;2023-05-16T05:48:42;18.55;;;3.05;;
26774;SDS011;14362;51.902;7.626;2023-05-16T05:52:44;14.70;;;2.53;;
26774;SDS011;14362;51.902;7.626;2023-05-16T05:56:46;15.77;;;3.25;;
26774;SDS011;14362;51.902;7.626;2023-05-16T06:00:47;11.65;;;2.15;;
26774;SDS011;14362;51.902;7.626;2023-05-16T06:04:50;11.90;;;3.00;;
26774;SDS011;14362;51.902;7.626;2023-05-16T06:08:51;14.15;;;2.28;;
26774;SDS011;14362;51.902;7.626;2023-05-16T06:12:52;7.13;;;2.10;;
26774;SDS011;14362;51.902;7.626;2023-05-16T06:16:54;8.63;;;2.55;;
26774;SDS011;14362;51.902;7.626;2023-05-16T06:20:57;12.80;;;2.35;;
26774;SDS011;14362;51.902;7.626;2023-05-16T06:24:58;11.35;;;2.70;;
26774;SDS011;14362;51.902;7.626;2023-05-16T06:28:59;12.45;;;2.85;;
26774;SDS011;14362;51.902;7.626;2023-05-16T06:33:01;9.25;;;1.73;;
26774;SDS011;14362;51.902;7.626;2023-05-16T06:37:04;9.75;;;1.95;;
26774;SDS011;14362;51.902;7.626;2023-05-16T06:41:05;5.72;;;2.22;;
26774;SDS011;14362;51.902;7.626;2023-05-16T06:45:07;14.27;;;2.55;;
26774;SDS011;14362;51.902;7.626;2023-05-16T06:49:09;14.77;;;2.47;;
26774;SDS011;14362;51.902;7.626;2023-05-16T06:53:12;8.65;;;1.90;;
26774;SDS011;14362;51.902;7.626;2023-05-16T06:57:14;9.18;;;2.05;;
26774;SDS011;14362;51.902;7.626;2023-05-16T07:01:15;10.23;;;2.53;;
26774;SDS011;14362;51.902;7.626;2023-05-16T07:05:17;12.05;;;2.53;;
26774;SDS011;14362;51.902;7.626;2023-05-16T07:09:19;9.20;;;2.38;;
26774;SDS011;14362;51.902;7.626;2023-05-16T07:13:21;10.77;;;2.15;;
26774;SDS011;14362;51.902;7.626;2023-05-16T07:17:22;8.75;;;2.03;;
26774;SDS011;14362;51.902;7.626;2023-05-16T07:21:24;5.00;;;1.80;;
26774;SDS011;14362;51.902;7.626;2023-05-16T07:25:26;9.63;;;2.00;;
26774;SDS011;14362;51.902;7.626;2023-05-16T07:29:28;7.57;;;1.92;;
26774;SDS011;14362;51.902;7.626;2023-05-16T07:33:30;9.68;;;1.95;;
26774;SDS011;14362;51.902;7.626;2023-05-16T07:37:31;12.05;;;2.10;;
26774;SDS011;14362;51.902;7.626;2023-05-16T07:41:34;9.23;;;1.95;;
26774;SDS011;14362;51.902;7.626;2023-05-16T07:45:36;9.18;;;1.65;;
26774;SDS011;14362;51.902;7.626;2023-05-16T07:49:38;10.20;;;1.52;;
26774;SDS011;14362;51.902;7.626;2023-05-16T07:53:39;7.25;;;1.77;;
26774;SDS011;14362;51.902;7.626;2023-05-16T07:57:42;5.25;;;1.77;;
26774;SDS011;14362;51.902;7.626;2023-05-16T08:01:43;7.63;;;1.73;;
26774;SDS011;14362;51.902;7.626;2023-05-16T08:05:45;6.20;;;1.33;;
26774;SDS011;14362;51.902;7.626;2023-05-16T08:09:47;4.72;;;1.45;;
26774;SDS011;14362;51.902;7.626;2023-05-16T08:13:50;4.70;;;1.80;;
26774;SDS011;14362;51.902;7.626;2023-05-16T08:17:53;7.53;;;1.60;;
26774;SDS011;14362;51.902;7.626;2023-05-16T08:21:57;4.60;;;1.40;;
26774;SDS011;14362;51.902;7.626;2023-05-16T08:25:59;2.13;;;1.10;;
26774;SDS011;14362;51.902;7.626;2023-05-16T08:30:02;4.85;;;1.40;;
26774;SDS011;14362;51.902;7.626;2023-05-16T08:34:03;6.18;;;1.30;;
26774;SDS011;14362;51.902;7.626;2023-05-16T08:38:05;8.15;;;1.80;;
26774;SDS011;14362;51.902;7.626;2023-05-16T08:42:06;6.45;;;1.67;;
26774;SDS011;14362;51.902;7.626;2023-05-16T08:46:09;8.05;;;1.70;;
26774;SDS011;14362;51.902;7.626;2023-05-16T08:50:11;6.10;;;1.17;;
26774;SDS011;14362;51.902;7.626;2023-05-16T08:54:14;8.13;;;2.00;;
26774;SDS011;14362;51.902;7.626;2023-05-16T08:58:16;5.88;;;1.30;;
26774;SDS011;14362;51.902;7.626;2023-05-16T09:02:20;7.95;;;1.38;;
26774;SDS011;14362;51.902;7.626;2023-05-16T09:06:22;9.82;;;1.77;;
26774;SDS011;14362;51.902;7.626;2023-05-16T09:10:23;7.93;;;1.52;;
26774;SDS011;14362;51.902;7.626;2023-05-16T09:14:25;10.80;;;2.45;;
26774;SDS011;14362;51.902;7.626;2023-05-16T09:18:28;3.72;;;1.42;;
26774;SDS011;14362;51.902;7.626;2023-05-16T09:22:30;6.00;;;1.50;;
26774;SDS011;14362;51.902;7.626;2023-05-16T09:26:31;4.53;;;1.25;;
26774;SDS011;14362;51.902;7.626;2023-05-16T09:30:33;4.85;;;1.45;;
26774;SDS011;14362;51.902;7.626;2023-05-16T09:34:43;7.35;;;1.65;;
26774;SDS011;14362;51.902;7.626;2023-05-16T09:38:47;5.03;;;1.60;;
26774;SDS011;14362;51.902;7.626;2023-05-16T09:42:52;6.18;;;1.20;;
26774;SDS011;14362;51.902;7.626;2023-05-16T09:47:03;4.07;;;1.20;;
26774;SDS011;14362;51.902;7.626;2023-05-16T09:51:06;3.47;;;1.63;;
26774;SDS011;14362;51.902;7.626;2023-05-16T09:55:08;5.97;;;1.27;;
26774;SDS011;14362;51.902;7.626;2023-05-16T09:59:10;6.90;;;1.30;;
26774;SDS011;14362;51.902;7.626;2023-05-16T10:03:11;5.47;;;1.10;;
26774;SDS011;14362;51.902;7.626;2023-05-16T10:07:16;4.22;;;1.08;;
26774;SDS011;14362;51.902;7.626;2023-05-16T10:11:18;2.83;;;1.10;;
26774;SDS011;14362;51.902;7.626;2023-05-16T10:15:20;5.30;;;1.45;;
26774;SDS011;14362;51.902;7.626;2023-05-16T10:19:22;4.68;;;1.45;;
26774;SDS011;14362;51.902;7.626;2023-05-16T10:23:27;3.75;;;1.13;;
26774;SDS011;14362;51.902;7.626;2023-05-16T10:27:29;3.40;;;1.05;;
26774;SDS011;14362;51.902;7.626;2023-05-16T10:31:31;4.32;;;1.02;;
26774;SDS011;14362;51.902;7.626;2023-05-16T10:35:33;3.80;;;1.00;;
26774;SDS011;14362;51.902;7.626;2023-05-16T10:39:37;5.82;;;1.27;;
26774;SDS011;14362;51.902;7.626;2023-05-16T10:43:43;6.13;;;1.50;;
26774;SDS011;14362;51.902;7.626;2023-05-16T10:47:49;6.75;;;1.60;;
26774;SDS011;14362;51.902;7.626;2023-05-16T10:52:00;6.50;;;1.67;;
26774;SDS011;14362;51.902;7.626;2023-05-16T10:56:07;4.05;;;1.70;;
26774;SDS011;14362;51.902;7.626;2023-05-16T11:00:10;5.90;;;1.75;;
26774;SDS011;14362;51.902;7.626;2023-05-16T11:04:22;5.32;;;1.20;;
26774;SDS011;14362;51.902;7.626;2023-05-16T11:08:23;4.85;;;1.13;;
26774;SDS011;14362;51.902;7.626;2023-05-16T11:12:30;5.07;;;1.50;;
26774;SDS011;14362;51.902;7.626;2023-05-16T11:16:38;3.15;;;1.42;;
26774;SDS011;14362;51.902;7.626;2023-05-16T11:20:39;5.82;;;1.20;;
26774;SDS011;14362;51.902;7.626;2023-05-16T11:24:48;2.42;;;1.00;;
26774;SDS011;14362;51.902;7.626;2023-05-16T11:28:56;3.38;;;1.15;;
26774;SDS011;14362;51.902;7.626;2023-05-16T11:32:58;2.35;;;0.90;;
26774;SDS011;14362;51.902;7.626;2023-05-16T11:36:59;3.05;;;1.02;;
26774;SDS011;14362;51.902;7.626;2023-05-16T11:41:02;2.38;;;1.10;;
26774;SDS011;14362;51.902;7.626;2023-05-16T11:45:06;2.00;;;0.85;;
26774;SDS011;14362;51.902;7.626;2023-05-16T11:49:11;3.97;;;1.17;;
26774;SDS011;14362;51.902;7.626;2023-05-16T11:53:12;6.18;;;1.27;;
26774;SDS011;14362;51.902;7.626;2023-05-16T11:57:14;4.53;;;1.23;;
26774;SDS011;14362;51.902;7.626;2023-05-16T12:01:17;6.03;;;1.48;;
26774;SDS011;14362;51.902;7.626;2023-05-16T12:05:19;4.80;;;1.70;;
26774;SDS011;14362;51.902;7.626;2023-05-16T12:09:24;5.25;;;1.33;;
26774;SDS011;14362;51.902;7.626;2023-05-16T12:13:25;3.97;;;1.25;;
26774;SDS011;14362;51.902;7.626;2023-05-16T12:17:28;6.95;;;1.63;;
26774;SDS011;14362;51.902;7.626;2023-05-16T12:21:30;4.93;;;1.60;;
26774;SDS011;14362;51.902;7.626;2023-05-16T12:25:32;2.75;;;1.35;;
26774;SDS011;14362;51.902;7.626;2023-05-16T12:29:36;3.60;;;1.17;;
26774;SDS011;14362;51.902;7.626;2023-05-16T12:33:39;4.35;;;1.77;;
26774;SDS011;14362;51.902;7.626;2023-05-16T12:37:42;2.45;;;1.00;;
26774;SDS011;14362;51.902;7.626;2023-05-16T12:41:44;2.00;;;1.00;;
26774;SDS011;14362;51.902;7.626;2023-05-16T12:45:48;3.28;;;1.30;;
26774;SDS011;14362;51.902;7.626;2023-05-16T12:49:51;3.55;;;1.20;;
26774;SDS011;14362;51.902;7.626;2023-05-16T12:53:53;4.10;;;1.30;;
26774;SDS011;14362;51.902;7.626;2023-05-16T12:57:54;7.10;;;1.80;;
26774;SDS011;14362;51.902;7.626;2023-05-16T13:01:57;4.47;;;1.38;;
26774;SDS011;14362;51.902;7.626;2023-05-16T13:05:59;6.63;;;1.42;;
26774;SDS011;14362;51.902;7.626;2023-05-16T13:10:02;4.05;;;1.40;;
26774;SDS011;14362;51.902;7.626;2023-05-16T13:14:05;3.42;;;1.33;;
26774;SDS011;14362;51.902;7.626;2023-05-16T13:18:06;4.97;;;1.30;;
26774;SDS011;14362;51.902;7.626;2023-05-16T13:22:09;5.38;;;1.73;;
26774;SDS011;14362;51.902;7.626;2023-05-16T13:26:11;5.20;;;1.67;;
26774;SDS011;14362;51.902;7.626;2023-05-16T13:30:12;3.42;;;1.40;;
26774;SDS011;14362;51.902;7.626;2023-05-16T13:34:14;7.38;;;1.30;;
26774;SDS011;14362;51.902;7.626;2023-05-16T13:38:16;3.15;;;1.05;;
26774;SDS011;14362;51.902;7.626;2023-05-16T13:42:20;2.33;;;1.10;;
26774;SDS011;14362;51.902;7.626;2023-05-16T13:46:21;4.93;;;1.40;;
26774;SDS011;14362;51.902;7.626;2023-05-16T13:50:23;6.80;;;1.67;;
26774;SDS011;14362;51.902;7.626;2023-05-16T13:54:26;2.08;;;1.10;;
26774;SDS011;14362;51.902;7.626;2023-05-16T13:58:27;2.80;;;1.10;;
26774;SDS011;14362;51.902;7.626;2023-05-16T14:02:29;4.15;;;1.50;;
26774;SDS011;14362;51.902;7.626;2023-05-16T14:06:30;7.05;;;1.83;;
26774;SDS011;14362;51.902;7.626;2023-05-16T14:10:33;4.57;;;1.23;;
26774;SDS011;14362;51.902;7.626;2023-05-16T14:14:35;2.25;;;1.10;;
26774;SDS011;14362;51.902;7.626;2023-05-16T14:18:37;4.50;;;1.55;;
26774;SDS011;14362;51.902;7.626;2023-05-16T14:22:38;4.80;;;1.65;;
26774;SDS011;14362;51.902;7.626;2023-05-16T14:26:41;4.35;;;1.48;;
26774;SDS011;14362;51.902;7.626;2023-05-16T14:30:42;3.90;;;1.40;;
26774;SDS011;14362;51.902;7.626;2023-05-16T14:34:44;4.57;;;1.55;;
26774;SDS011;14362;51.902;7.626;2023-05-16T14:38:45;3.65;;;1.42;;
26774;SDS011;14362;51.902;7.626;2023-05-16T14:42:49;5.95;;;1.63;;
26774;SDS011;14362;51.902;7.626;2023-05-16T14:46:51;7.65;;;1.85;;
26774;SDS011;14362;51.902;7.626;2023-05-16T14:50:52;3.80;;;1.50;;
26774;SDS011;14362;51.902;7.626;2023-05-16T14:54:54;4.10;;;1.63;;
26774;SDS011;14362;51.902;7.626;2023-05-16T14:58:56;5.75;;;1.92;;
26774;SDS011;14362;51.902;7.626;2023-05-16T15:02:59;4.82;;;1.60;;
26774;SDS011;14362;51.902;7.626;2023-05-16T15:07:01;4.50;;;1.55;;
26774;SDS011;14362;51.902;7.626;2023-05-16T15:11:02;4.35;;;1.63;;
26774;SDS011;14362;51.902;7.626;2023-05-16T15:15:06;2.75;;;1.50;;
26774;SDS011;14362;51.902;7.626;2023-05-16T15:19:10;4.32;;;1.60;;
26774;SDS011;14362;51.902;7.626;2023-05-16T15:23:11;2.13;;;1.25;;
26774;SDS011;14362;51.902;7.626;2023-05-16T15:27:13;3.65;;;1.60;;
26774;SDS011;14362;51.902;7.626;2023-05-16T15:31:15;4.40;;;1.70;;
26774;SDS011;14362;51.902;7.626;2023-05-16T15:35:17;3.05;;;1.58;;
26774;SDS011;14362;51.902;7.626;2023-05-16T15:39:18;4.32;;;1.80;;
26774;SDS011;14362;51.902;7.626;2023-05-16T15:43:20;3.83;;;1.65;;
26774;SDS011;14362;51.902;7.626;2023-05-16T15:47:22;4.03;;;2.00;;
26774;SDS011;14362;51.902;7.626;2023-05-16T15:51:25;5.03;;;1.67;;
26774;SDS011;14362;51.902;7.626;2023-05-16T15:55:26;3.28;;;1.38;;
26774;SDS011;14362;51.902;7.626;2023-05-16T15:59:27;3.35;;;1.20;;
26774;SDS011;14362;51.902;7.626;2023-05-16T16:03:30;4.03;;;1.50;;
26774;SDS011;14362;51.902;7.626;2023-05-16T16:07:32;4.43;;;2.50;;
26774;SDS011;14362;51.902;7.626;2023-05-16T16:11:33;4.45;;;1.60;;
26774;SDS011;14362;51.902;7.626;2023-05-16T16:15:35;4.68;;;1.52;;
26774;SDS011;14362;51.902;7.626;2023-05-16T16:19:37;4.00;;;1.83;;
26774;SDS011;14362;51.902;7.626;2023-05-16T16:23:39;5.47;;;2.00;;
26774;SDS011;14362;51.902;7.626;2023-05-16T16:27:41;4.97;;;1.70;;
26774;SDS011;14362;51.902;7.626;2023-05-16T16:31:42;3.53;;;1.65;;
26774;SDS011;14362;51.902;7.626;2023-05-16T16:35:45;4.72;;;1.70;;
26774;SDS011;14362;51.902;7.626;2023-05-16T16:39:46;5.63;;;2.05;;
26774;SDS011;14362;51.902;7.626;2023-05-16T16:43:48;5.57;;;2.00;;
26774;SDS011;14362;51.902;7.626;2023-05-16T16:47:49;5.20;;;1.85;;
26774;SDS011;14362;51.902;7.626;2023-05-16T16:51:52;5.72;;;2.28;;
26774;SDS011;14362;51.902;7.626;2023-05-16T16:55:54;4.53;;;2.10;;
26774;SDS011;14362;51.902;7.626;2023-05-16T16:59:55;5.10;;;2.28;;
26774;SDS011;14362;51.902;7.626;2023-05-16T17:03:58;6.45;;;2.60;;
26774;SDS011;14362;51.902;7.626;2023-05-16T17:08:02;9.52;;;2.63;;
26774;SDS011;14362;51.902;7.626;2023-05-16T17:12:03;4.03;;;2.25;;
26774;SDS011;14362;51.902;7.626;2023-05-16T17:16:08;5.43;;;2.30;;
26774;SDS011;14362;51.902;7.626;2023-05-16T17:20:10;6.20;;;2.40;;
26774;SDS011;14362;51.902;7.626;2023-05-16T17:24:14;4.82;;;2.42;;
26774;SDS011;14362;51.902;7.626;2023-05-16T17:28:16;5.55;;;2.60;;
26774;SDS011;14362;51.902;7.626;2023-05-16T17:32:17;4.50;;;2.30;;
26774;SDS011;14362;51.902;7.626;2023-05-16T17:36:20;5.25;;;2.78;;
26774;SDS011;14362;51.902;7.626;2023-05-16T17:40:23;5.45;;;2.50;;
26774;SDS011;14362;51.902;7.626;2023-05-16T17:44:24;6.90;;;2.67;;
26774;SDS011;14362;51.902;7.626;2023-05-16T17:48:26;7.68;;;2.90;;
26774;SDS011;14362;51.902;7.626;2023-05-16T17:52:27;4.45;;;2.50;;
26774;SDS011;14362;51.902;7.626;2023-05-16T17:56:30;4.30;;;3.03;;
26774;SDS011;14362;51.902;7.626;2023-05-16T18:00:31;9.32;;;3.00;;
26774;SDS011;14362;51.902;7.626;2023-05-16T18:04:33;6.47;;;3.22;;
26774;SDS011;14362;51.902;7.626;2023-05-16T18:08:34;7.43;;;3.33;;
26774;SDS011;14362;51.902;7.626;2023-05-16T18:12:37;6.65;;;3.03;;
26774;SDS011;14362;51.902;7.626;2023-05-16T18:16:38;6.38;;;3.42;;
26774;SDS011;14362;51.902;7.626;2023-05-16T18:20:40;10.73;;;3.58;;
26774;SDS011;14362;51.902;7.626;2023-05-16T18:24:41;7.78;;;3.60;;
26774;SDS011;14362;51.902;7.626;2023-05-16T18:28:45;7.75;;;3.42;;
26774;SDS011;14362;51.902;7.626;2023-05-16T18:32:46;11.15;;;3.53;;
26774;SDS011;14362;51.902;7.626;2023-05-16T18:36:48;8.02;;;3.15;;
26774;SDS011;14362;51.902;7.626;2023-05-16T18:40:49;5.28;;;3.05;;
26774;SDS011;14362;51.902;7.626;2023-05-16T18:44:52;4.38;;;3.03;;
26774;SDS011;14362;51.902;7.626;2023-05-16T18:48:53;8.13;;;3.00;;
26774;SDS011;14362;51.902;7.626;2023-05-16T18:52:56;10.23;;;3.60;;
26774;SDS011;14362;51.902;7.626;2023-05-16T18:56:58;6.50;;;2.97;;
26774;SDS011;14362;51.902;7.626;2023-05-16T19:01:01;6.72;;;2.83;;
26774;SDS011;14362;51.902;7.626;2023-05-16T19:05:03;7.25;;;3.17;;
26774;SDS011;14362;51.902;7.626;2023-05-16T19:09:04;9.90;;;3.95;;
26774;SDS011;14362;51.902;7.626;2023-05-16T19:13:06;6.85;;;2.80;;
26774;SDS011;14362;51.902;7.626;2023-05-16T19:17:09;6.80;;;3.45;;
26774;SDS011;14362;51.902;7.626;2023-05-16T19:21:10;6.13;;;2.90;;
26774;SDS011;14362;51.902;7.626;2023-05-16T19:25:13;6.60;;;3.22;;
26774;SDS011;14362;51.902;7.626;2023-05-16T19:29:14;7.18;;;3.10;;
26774;SDS011;14362;51.902;7.626;2023-05-16T19:33:17;7.55;;;3.15;;
26774;SDS011;14362;51.902;7.626;2023-05-16T19:37:18;9.02;;;3.38;;
26774;SDS011;14362;51.902;7.626;2023-05-16T19:41:20;8.52;;;3.17;;
26774;SDS011;14362;51.902;7.626;2023-05-16T19:45:23;5.07;;;3.15;;
26774;SDS011;14362;51.902;7.626;2023-05-16T19:49:26;5.47;;;2.85;;
26774;SDS011;14362;51.902;7.626;2023-05-16T19:53:30;6.68;;;3.30;;
26774;SDS011;14362;51.902;7.626;2023-05-16T19:57:31;7.03;;;3.35;;
26774;SDS011;14362;51.902;7.626;2023-05-16T20:01:32;7.88;;;3.45;;
26774;SDS011;14362;51.902;7.626;2023-05-16T20:05:35;5.28;;;3.55;;
26774;SDS011;14362;51.902;7.626;2023-05-16T20:09:36;6.25;;;3.55;;
26774;SDS011;14362;51.902;7.626;2023-05-16T20:13:38;7.13;;;3.05;;
26774;SDS011;14362;51.902;7.626;2023-05-16T20:17:39;7.93;;;3.05;;
26774;SDS011;14362;51.902;7.626;2023-05-16T20:21:42;5.43;;;3.30;;
26774;SDS011;14362;51.902;7.626;2023-05-16T20:25:43;5.82;;;3.17;;
26774;SDS011;14362;51.902;7.626;2023-05-16T20:29:45;5.55;;;3.08;;
26774;SDS011;14362;51.902;7.626;2023-05-16T20:33:48;5.60;;;3.72;;
26774;SDS011;14362;51.902;7.626;2023-05-16T20:37:50;8.00;;;3.58;;
26774;SDS011;14362;51.902;7.626;2023-05-16T20:41:52;8.25;;;3.50;;
26774;SDS011;14362;51.902;7.626;2023-05-16T20:45:53;6.82;;;3.00;;
26774;SDS011;14362;51.902;7.626;2023-05-16T20:49:55;9.98;;;3.17;;
26774;SDS011;14362;51.902;7.626;2023-05-16T20:53:58;6.13;;;3.63;;
26774;SDS011;14362;51.902;7.626;2023-05-16T20:57:59;10.52;;;3.90;;
26774;SDS011;14362;51.902;7.626;2023-05-16T21:02:00;6.47;;;3.22;;
26774;SDS011;14362;51.902;7.626;2023-05-16T21:06:02;5.95;;;3.42;;
26774;SDS011;14362;51.902;7.626;2023-05-16T21:10:05;6.43;;;3.45;;
26774;SDS011;14362;51.902;7.626;2023-05-16T21:14:07;6.43;;;3.20;;
26774;SDS011;14362;51.902;7.626;2023-05-16T21:18:08;5.63;;;3.63;;
26774;SDS011;14362;51.902;7.626;2023-05-16T21:22:10;6.20;;;3.75;;
26774;SDS011;14362;51.902;7.626;2023-05-16T21:26:13;5.32;;;3.28;;
26774;SDS011;14362;51.902;7.626;2023-05-16T21:30:14;5.38;;;3.72;;
26774;SDS011;14362;51.902;7.626;2023-05-16T21:34:15;5.63;;;3.35;;
26774;SDS011;14362;51.902;7.626;2023-05-16T21:38:17;7.13;;;3.72;;
26774;SDS011;14362;51.902;7.626;2023-05-16T21:42:20;7.28;;;3.88;;
26774;SDS011;14362;51.902;7.626;2023-05-16T21:46:21;7.97;;;3.42;;
26774;SDS011;14362;51.902;7.626;2023-05-16T21:50:22;7.55;;;3.17;;
26774;SDS011;14362;51.902;7.626;2023-05-16T21:54:24;8.55;;;3.42;;
26774;SDS011;14362;51.902;7.626;2023-05-16T21:58:26;6.10;;;3.33;;
26774;SDS011;14362;51.902;7.626;2023-05-16T22:02:28;7.57;;;3.38;;
26774;SDS011;14362;51.902;7.626;2023-05-16T22:06:30;11.00;;;3.50;;
26774;SDS011;14362;51.902;7.626;2023-05-16T22:10:31;7.10;;;3.80;;
26774;SDS011;14362;51.902;7.626;2023-05-16T22:14:34;7.25;;;3.35;;
26774;SDS011;14362;51.902;7.626;2023-05-16T22:18:35;7.20;;;3.00;;
26774;SDS011;14362;51.902;7.626;2023-05-16T22:22:37;7.22;;;3.50;;
26774;SDS011;14362;51.902;7.626;2023-05-16T22:26:38;4.97;;;3.20;;
26774;SDS011;14362;51.902;7.626;2023-05-16T22:30:41;7.63;;;3.67;;
26774;SDS011;14362;51.902;7.626;2023-05-16T22:34:42;8.45;;;3.30;;
26774;SDS011;14362;51.902;7.626;2023-05-16T22:38:43;7.72;;;3.33;;
26774;SDS011;14362;51.902;7.626;2023-05-16T22:42:45;9.70;;;3.10;;
26774;SDS011;14362;51.902;7.626;2023-05-16T22:46:48;7.50;;;3.50;;
26774;SDS011;14362;51.902;7.626;2023-05-16T22:50:49;6.80;;;2.78;;
26774;SDS011;14362;51.902;7.626;2023-05-16T22:54:50;6.57;;;2.92;;
26774;SDS011;14362;51.902;7.626;2023-05-16T22:58:52;6.25;;;3.50;;
26774;SDS011;14362;51.902;7.626;2023-05-16T23:02:54;7.32;;;2.97;;
26774;SDS011;14362;51.902;7.626;2023-05-16T23:06:56;7.32;;;2.60;;
26774;SDS011;14362;51.902;7.626;2023-05-16T23:10:57;4.45;;;3.08;;
26774;SDS011;14362;51.902;7.626;2023-05-16T23:14:59;6.22;;;2.78;;
26774;SDS011;14362;51.902;7.626;2023-05-16T23:19:01;6.97;;;3.42;;
26774;SDS011;14362;51.902;7.626;2023-05-16T23:23:03;15.40;;;3.08;;
26774;SDS011;14362;51.902;7.626;2023-05-16T23:27:04;6.72;;;3.03;;
26774;SDS011;14362;51.902;7.626;2023-05-16T23:31:06;4.25;;;2.40;;
26774;SDS011;14362;51.902;7.626;2023-05-16T23:35:08;5.57;;;3.03;;
26774;SDS011;14362;51.902;7.626;2023-05-16T23:39:10;8.27;;;2.72;;
26774;SDS011;14362;51.902;7.626;2023-05-16T23:43:12;5.28;;;2.80;;
26774;SDS011;14362;51.902;7.626;2023-05-16T23:47:13;5.18;;;2.90;;
26774;SDS011;14362;51.902;7.626;2023-05-16T23:51:16;5.63;;;2.42;;
26774;SDS011;14362;51.902;7.626;2023-05-16T23:55:17;6.88;;;3.10;;
26774;SDS011;14362;51.902;7.626;2023-05-16T23:59:19;4.93;;;2.40;;
